Terminal Aerodrome Forecast
Issued by NWS

Home | Current Version | Previous Version | Text Only | Print | Product List | Glossary On
Versions: 1 2 3 4 5 6 7 8 9 10 11 12 13 14 15 16 17
073
FTUS41 KCAR 241731
TAFPQI
TAF
KPQI 241731Z 2418/2518 14007KT P6SM SCT250
     FM250600 17005KT P6SM BKN025
     FM250800 18005KT P6SM BKN008
     FM251000 19005KT P6SM BKN015
     FM251200 18007KT P6SM BKN025
     FM251300 18007KT P6SM BKN060=

USA.gov is the U.S. government's official web portal to all federal, state and local government web resources and services.